KCBK/CBK METAR and TAF weather

Enter ICAO airport designator
Station Type Date Time Source
KCBK METAR 2018/07/20 14:15 UTC NOAA

KCBK 201415Z AUTO 13008KT 10SM CLR 25/19 A2999 RMK AO2


Station Type Date Time Source
KCBK Decoded METAR 2018/07/20 14:15 UTC NOAA

Station name not available
Jul 20, 2018 - 10:15 AM EDT / 2018.07.20 1415 UTC
Wind: from the SE (130 degrees) at 9 MPH (8 KT):0
Visibility: 10 mile(s):0
Sky conditions: clear
Temperature: 77 F (25 C)
Dew Point: 66 F (19 C)
Relative Humidity: 69%
Pressure (altimeter): 29.99 in. Hg (1015 hPa)
ob: KCBK 201415Z AUTO 13008KT 10SM CLR 25/19 A2999 RMK AO2
cycle: 14

Station Type Date Time Source
KCBK TAF UTC NOAA

Error!


Example: see airport list